createdAt,value
2018-04-19T00:00:46.894Z,30.20
2018-04-19T00:01:46.910Z,29.90
2018-04-19T00:02:46.924Z,32.60
2018-04-19T00:03:46.943Z,36.90
2018-04-19T00:04:46.974Z,37.20
2018-04-19T00:05:46.989Z,32.50
2018-04-19T00:06:47.070Z,30.90
2018-04-19T00:07:47.026Z,33.60
2018-04-19T00:10:18.813Z,32.30
2018-04-19T00:11:18.789Z,31.40
2018-04-19T00:13:11.815Z,32.50
2018-04-19T00:14:11.826Z,33.60
2018-04-19T00:16:04.887Z,35.30
2018-04-19T00:17:04.863Z,32.80
2018-04-19T00:18:57.881Z,31.10
2018-04-19T00:19:57.900Z,35.40
2018-04-19T00:21:50.979Z,31.80
2018-04-19T00:22:50.954Z,34.70
2018-04-19T00:24:43.984Z,33.90
2018-04-19T00:25:43.993Z,34.70
2018-04-19T00:27:37.046Z,34.40
2018-04-19T00:28:37.021Z,36.80
2018-04-19T00:30:39.912Z,32.30
2018-04-19T00:31:32.618Z,33.80
2018-04-19T00:33:26.658Z,35.40
2018-04-19T00:34:26.656Z,32.70
2018-04-19T00:36:19.757Z,33.20
2018-04-19T00:37:19.694Z,33.70
2018-04-19T00:39:13.227Z,35.70
2018-04-19T00:41:26.424Z,37.10
2018-04-19T00:42:26.271Z,35.20
2018-04-19T00:44:19.295Z,35.50
2018-04-19T00:45:19.301Z,34.30
2018-04-19T00:47:12.369Z,30.30
2018-04-19T00:48:12.338Z,30.40
2018-04-19T00:50:05.368Z,29.40
2018-04-19T00:51:05.502Z,33.40
2018-04-19T00:53:10.311Z,31.90
2018-04-19T00:54:10.264Z,33.30
2018-04-19T00:55:10.298Z,31.60
2018-04-19T00:56:10.322Z,31.90
2018-04-19T00:57:10.325Z,38.60
2018-04-19T00:58:10.336Z,34.60
2018-04-19T00:59:10.362Z,37.60
2018-04-19T01:00:10.394Z,29.00
2018-04-19T01:01:10.395Z,30.10
2018-04-19T01:02:10.438Z,30.30
2018-04-19T01:03:10.460Z,33.20
2018-04-19T01:04:10.452Z,29.10
2018-04-19T01:05:10.472Z,32.40
2018-04-19T01:06:10.494Z,30.40
2018-04-19T01:07:10.501Z,34.80
2018-04-19T01:08:10.527Z,30.10
2018-04-19T01:09:10.537Z,33.20
2018-04-19T01:10:10.557Z,31.80
2018-04-19T01:11:10.579Z,32.20
2018-04-19T01:12:10.593Z,32.20
2018-04-19T01:13:10.633Z,32.10
2018-04-19T01:14:10.645Z,36.20
2018-04-19T01:15:10.650Z,32.00
2018-04-19T01:16:10.675Z,36.60
2018-04-19T01:17:10.686Z,36.80
2018-04-19T01:18:10.712Z,34.70
2018-04-19T01:19:10.729Z,32.20
2018-04-19T01:20:10.831Z,32.60
2018-04-19T01:21:10.774Z,30.40
2018-04-19T01:22:10.783Z,34.10
2018-04-19T01:23:10.791Z,32.10
2018-04-19T01:24:10.815Z,33.10
2018-04-19T01:25:10.833Z,38.60
2018-04-19T01:26:10.858Z,30.20
2018-04-19T01:27:10.873Z,31.60
2018-04-19T01:28:10.884Z,32.00
2018-04-19T01:29:10.907Z,34.70
2018-04-19T01:30:10.925Z,34.40
2018-04-19T01:31:11.023Z,34.10
2018-04-19T01:32:10.966Z,32.80
2018-04-19T01:33:10.976Z,39.00
2018-04-19T01:34:11.000Z,33.70
2018-04-19T01:35:11.015Z,33.40
2018-04-19T01:36:11.032Z,29.70
2018-04-19T01:37:11.058Z,29.80
2018-04-19T01:38:11.075Z,33.10
2018-04-19T01:39:11.104Z,33.90
2018-04-19T01:40:11.102Z,28.90
2018-04-19T01:41:11.123Z,29.10
2018-04-19T01:42:11.163Z,25.60
2018-04-19T01:43:11.175Z,31.70
2018-04-19T01:44:11.179Z,30.20
2018-04-19T01:45:11.207Z,33.20
2018-04-19T01:46:11.222Z,36.90
2018-04-19T01:47:11.240Z,33.40
2018-04-19T01:48:11.256Z,31.30
2018-04-19T01:49:11.282Z,32.20
2018-04-19T01:50:11.305Z,33.60
2018-04-19T01:51:11.305Z,28.40
2018-04-19T01:52:11.325Z,30.00
2018-04-19T01:53:11.342Z,30.50
2018-04-19T01:54:11.357Z,28.60
2018-04-19T01:55:11.378Z,29.10
2018-04-19T01:56:11.389Z,29.40
2018-04-19T01:57:11.425Z,28.40
2018-04-19T01:58:11.431Z,33.50
2018-04-19T01:59:11.443Z,33.20
2018-04-19T02:00:11.466Z,34.40
2018-04-19T02:01:11.482Z,35.70
2018-04-19T02:02:11.500Z,33.40
2018-04-19T02:03:11.538Z,33.50
2018-04-19T02:04:11.537Z,32.50
2018-04-19T02:05:11.558Z,32.80
2018-04-19T02:06:11.576Z,28.80
2018-04-19T02:07:11.620Z,28.80
2018-04-19T02:08:11.619Z,32.40
2018-04-19T02:09:11.630Z,30.50
2018-04-19T02:10:11.645Z,34.00
2018-04-19T02:11:11.659Z,38.10
2018-04-19T02:12:11.686Z,30.00
2018-04-19T02:13:11.704Z,30.10
2018-04-19T02:14:11.719Z,29.80
2018-04-19T02:15:11.731Z,32.30
2018-04-19T02:16:11.771Z,33.90
2018-04-19T02:17:11.775Z,36.10
2018-04-19T02:18:11.791Z,31.50
2018-04-19T02:19:11.862Z,30.80
2018-04-19T02:20:11.820Z,34.70
2018-04-19T02:21:11.863Z,29.40
2018-04-19T02:22:11.864Z,30.90
2018-04-19T02:23:11.880Z,32.40
2018-04-19T02:24:11.900Z,29.50
2018-04-19T02:25:11.917Z,32.10
2018-04-19T02:26:11.931Z,30.50
2018-04-19T02:27:11.980Z,33.10
2018-04-19T02:28:11.967Z,30.50
2018-04-19T02:29:11.985Z,28.50
2018-04-19T02:30:12.005Z,30.00
2018-04-19T02:31:12.020Z,30.80
2018-04-19T02:32:12.081Z,30.50
2018-04-19T02:33:12.063Z,32.40
2018-04-19T02:34:12.080Z,30.20
2018-04-19T02:35:12.096Z,31.00
2018-04-19T02:36:12.119Z,29.90
2018-04-19T02:37:12.128Z,33.10
2018-04-19T02:38:12.152Z,31.50
2018-04-19T02:39:12.164Z,30.10
2018-04-19T02:40:12.188Z,30.90
2018-04-19T02:41:12.219Z,32.10
2018-04-19T02:42:12.220Z,33.60
2018-04-19T02:43:12.237Z,35.20
2018-04-19T02:44:12.264Z,33.70
2018-04-19T02:45:12.285Z,31.70
2018-04-19T02:46:12.310Z,32.10
2018-04-19T02:47:12.308Z,29.80
2018-04-19T02:48:12.341Z,30.30
2018-04-19T02:49:12.356Z,34.90
2018-04-19T02:50:12.367Z,23.20
2018-04-19T02:51:12.379Z,31.40
2018-04-19T02:52:12.410Z,33.30
2018-04-19T02:53:12.413Z,28.50
2018-04-19T02:54:12.431Z,26.60
2018-04-19T02:55:12.457Z,34.20
2018-04-19T02:56:12.465Z,28.40
2018-04-19T02:57:12.492Z,32.20
2018-04-19T02:58:12.503Z,26.00
2018-04-19T02:59:12.523Z,28.30
2018-04-19T03:00:12.539Z,27.40
2018-04-19T03:01:12.558Z,28.80
2018-04-19T03:02:12.579Z,30.10
2018-04-19T03:03:12.605Z,30.20
2018-04-19T03:04:12.633Z,31.00
2018-04-19T03:05:12.648Z,31.30
2018-04-19T03:06:12.646Z,28.50
2018-04-19T03:07:12.663Z,31.80
2018-04-19T03:08:12.688Z,31.90
2018-04-19T03:09:12.716Z,28.10
2018-04-19T03:10:12.720Z,30.90
2018-04-19T03:11:12.743Z,30.30
2018-04-19T03:12:12.766Z,28.30
2018-04-19T03:13:12.772Z,30.50
2018-04-19T03:14:12.825Z,29.60
2018-04-19T03:15:12.832Z,30.10
2018-04-19T03:16:12.831Z,27.70
2018-04-19T03:17:12.844Z,32.60
2018-04-19T03:18:12.856Z,28.20
2018-04-19T03:19:12.876Z,35.20
2018-04-19T03:20:12.896Z,34.30
2018-04-19T03:21:12.918Z,30.80
2018-04-19T03:22:12.934Z,35.00
2018-04-19T03:23:12.959Z,34.40
2018-04-19T03:24:12.971Z,32.10
2018-04-19T03:25:12.989Z,29.00
2018-04-19T03:26:13.001Z,31.60
2018-04-19T03:27:13.031Z,30.50
2018-04-19T03:28:13.044Z,32.40
2018-04-19T03:29:13.057Z,32.20
2018-04-19T03:30:13.071Z,26.60
2018-04-19T03:31:13.096Z,29.30
2018-04-19T03:32:13.111Z,29.80
2018-04-19T03:33:13.131Z,29.60
2018-04-19T03:34:13.154Z,32.30
2018-04-19T03:35:13.167Z,31.30
2018-04-19T03:36:13.193Z,30.20
2018-04-19T03:37:13.203Z,35.90
2018-04-19T03:38:13.224Z,30.40
2018-04-19T03:39:13.232Z,29.20
2018-04-19T03:40:13.254Z,27.70
2018-04-19T03:41:13.268Z,30.40
2018-04-19T03:42:13.298Z,29.50
2018-04-19T03:43:13.302Z,29.40
2018-04-19T03:44:13.327Z,26.40
2018-04-19T03:45:13.357Z,29.50
2018-04-19T03:46:13.368Z,29.10
2018-04-19T03:47:13.378Z,35.00
2018-04-19T03:48:13.393Z,28.70
2018-04-19T03:49:13.416Z,30.10
2018-04-19T03:50:13.436Z,34.60
2018-04-19T03:51:13.442Z,29.70
2018-04-19T03:52:13.496Z,36.80
2018-04-19T03:53:13.486Z,38.70
2018-04-19T03:54:13.501Z,30.20
2018-04-19T03:55:13.515Z,31.80
2018-04-19T03:56:13.533Z,29.60
2018-04-19T03:57:13.549Z,29.30
2018-04-19T03:58:13.580Z,31.60
2018-04-19T03:59:13.585Z,30.50
2018-04-19T04:00:13.611Z,32.50
2018-04-19T04:01:13.648Z,35.60
2018-04-19T04:02:13.641Z,29.20
2018-04-19T04:03:13.676Z,30.60
2018-04-19T04:04:13.684Z,28.20
2018-04-19T04:05:13.699Z,28.00
2018-04-19T04:06:13.709Z,32.20
2018-04-19T04:07:13.725Z,28.20
2018-04-19T04:08:13.758Z,32.00
2018-04-19T04:09:13.769Z,31.20
2018-04-19T04:10:13.796Z,31.90
2018-04-19T04:11:13.807Z,29.60
2018-04-19T04:12:13.818Z,31.00
2018-04-19T04:13:13.833Z,39.30
2018-04-19T04:14:13.853Z,33.30
2018-04-19T04:15:13.877Z,37.20
2018-04-19T04:16:13.884Z,31.50
2018-04-19T04:17:13.912Z,33.50
2018-04-19T04:18:13.920Z,30.00
2018-04-19T04:19:13.940Z,33.80
2018-04-19T04:20:13.953Z,31.50
2018-04-19T04:21:13.982Z,37.10
2018-04-19T04:22:13.998Z,30.80
2018-04-19T04:23:14.008Z,33.70
2018-04-19T04:24:14.024Z,29.60
2018-04-19T04:25:14.050Z,32.70
2018-04-19T04:26:14.064Z,32.70
2018-04-19T04:27:14.091Z,32.30
2018-04-19T04:28:14.105Z,34.10
2018-04-19T04:29:14.134Z,31.90
2018-04-19T04:30:14.136Z,36.50
2018-04-19T04:31:14.227Z,30.40
2018-04-19T04:32:14.167Z,31.90
2018-04-19T04:33:14.184Z,32.40
2018-04-19T04:34:14.206Z,31.40
2018-04-19T04:35:14.247Z,34.90
2018-04-19T04:36:14.241Z,29.00
2018-04-19T04:37:14.259Z,34.10
2018-04-19T04:38:14.278Z,31.30
2018-04-19T04:39:14.294Z,33.60
2018-04-19T04:40:14.312Z,33.20
2018-04-19T04:41:14.331Z,30.10
2018-04-19T04:42:14.346Z,38.70
2018-04-19T04:43:14.374Z,30.70
2018-04-19T04:44:14.383Z,35.50
2018-04-19T04:45:14.405Z,32.50
2018-04-19T04:46:14.417Z,30.80
2018-04-19T04:47:14.438Z,35.10
2018-04-19T04:48:14.452Z,31.10
2018-04-19T04:49:14.468Z,25.90
2018-04-19T04:50:14.499Z,29.90
2018-04-19T04:51:14.504Z,26.50
2018-04-19T04:52:14.518Z,25.30
2018-04-19T04:53:14.540Z,26.80
2018-04-19T04:54:14.564Z,29.90
2018-04-19T04:55:14.571Z,30.70
2018-04-19T04:56:14.593Z,32.80
2018-04-19T04:57:14.610Z,31.80
2018-04-19T04:58:14.644Z,29.40
2018-04-19T04:59:14.645Z,29.90
2018-04-19T05:00:14.680Z,30.40
2018-04-19T05:01:14.687Z,28.20
2018-04-19T05:02:14.702Z,32.80
2018-04-19T05:03:14.721Z,34.30
2018-04-19T05:04:14.736Z,27.30
2018-04-19T05:05:14.766Z,28.10
2018-04-19T05:06:14.768Z,29.00
2018-04-19T05:07:14.793Z,27.70
2018-04-19T05:08:14.813Z,25.40
2018-04-19T05:09:14.835Z,25.60
2018-04-19T05:10:14.855Z,25.60
2018-04-19T05:11:14.885Z,27.20
2018-04-19T05:12:14.884Z,27.50
2018-04-19T05:13:14.911Z,24.90
2018-04-19T05:14:14.920Z,22.50
2018-04-19T05:15:14.941Z,24.40
2018-04-19T05:16:14.974Z,27.10
2018-04-19T05:17:14.986Z,26.70
2018-04-19T05:18:15.002Z,25.80
2018-04-19T05:19:15.045Z,25.00
2018-04-19T05:20:15.048Z,27.10
2018-04-19T05:21:15.066Z,20.20
2018-04-19T05:22:15.105Z,20.90
2018-04-19T05:23:15.115Z,27.70
2018-04-19T05:24:15.137Z,26.10
2018-04-19T05:25:15.165Z,19.00
2018-04-19T05:26:15.216Z,23.10
2018-04-19T05:27:15.193Z,28.30
2018-04-19T05:28:15.221Z,21.50
2018-04-19T05:29:15.242Z,21.00
2018-04-19T05:30:15.263Z,20.70
2018-04-19T05:31:15.286Z,19.70
2018-04-19T05:32:15.315Z,26.40
2018-04-19T05:33:15.337Z,22.80
2018-04-19T05:34:15.359Z,22.40
2018-04-19T05:35:15.376Z,20.90
2018-04-19T05:36:15.402Z,20.90
2018-04-19T05:37:15.470Z,23.50
2018-04-19T05:38:15.454Z,23.50
2018-04-19T05:39:15.470Z,21.10
2018-04-19T05:40:15.497Z,34.00
2018-04-19T05:41:15.525Z,38.80
2018-04-19T05:42:15.552Z,41.30
2018-04-19T05:43:15.569Z,44.80
2018-04-19T05:44:15.605Z,39.70
2018-04-19T05:45:15.631Z,31.50
2018-04-19T05:46:15.641Z,34.30
2018-04-19T05:47:15.667Z,32.00
2018-04-19T05:48:15.689Z,29.20
2018-04-19T05:49:15.725Z,32.80
2018-04-19T05:50:15.737Z,30.90
2018-04-19T05:51:15.763Z,31.60
2018-04-19T05:52:15.803Z,33.70
2018-04-19T05:53:15.818Z,28.60
2018-04-19T05:54:15.837Z,27.90
2018-04-19T05:55:15.869Z,28.40
2018-04-19T05:56:15.893Z,26.00
2018-04-19T05:57:15.919Z,25.50
2018-04-19T05:58:15.938Z,25.60
2018-04-19T05:59:15.977Z,25.70
2018-04-19T06:00:15.997Z,26.70
2018-04-19T06:01:16.025Z,25.90
2018-04-19T06:02:16.048Z,25.90
2018-04-19T06:03:16.071Z,28.80
2018-04-19T06:04:16.095Z,28.60
2018-04-19T06:05:16.123Z,25.00
2018-04-19T06:06:16.147Z,25.10
2018-04-19T06:07:16.174Z,22.40
2018-04-19T06:08:16.209Z,21.30
2018-04-19T06:09:16.232Z,21.50
2018-04-19T06:10:16.251Z,22.10
2018-04-19T06:11:16.278Z,22.10
2018-04-19T06:12:16.319Z,21.80
2018-04-19T06:13:16.329Z,21.30
2018-04-19T06:14:16.372Z,24.20
2018-04-19T06:15:16.387Z,19.10
2018-04-19T06:16:16.416Z,19.80
2018-04-19T06:17:16.442Z,23.80
2018-04-19T06:18:16.470Z,21.30
2018-04-19T06:19:16.499Z,18.90
2018-04-19T06:20:16.517Z,18.00
2018-04-19T06:21:16.555Z,20.50
2018-04-19T06:22:16.578Z,20.60
2018-04-19T06:23:16.597Z,18.50
2018-04-19T06:24:16.625Z,19.10
2018-04-19T06:25:16.673Z,20.00
2018-04-19T06:26:16.688Z,19.60
2018-04-19T06:27:16.722Z,20.10
2018-04-19T06:28:16.742Z,18.30
2018-04-19T06:29:16.770Z,18.20
2018-04-19T06:30:16.796Z,15.50
2018-04-19T06:31:16.826Z,15.60
2018-04-19T06:32:16.849Z,18.20
2018-04-19T06:33:16.877Z,17.40
2018-04-19T06:34:16.904Z,16.50
2018-04-19T06:35:16.952Z,15.10
2018-04-19T06:36:16.953Z,18.30
2018-04-19T06:37:16.989Z,17.20
2018-04-19T06:38:17.017Z,17.30
2018-04-19T06:39:17.039Z,21.70
2018-04-19T06:40:17.065Z,19.50
2018-04-19T06:41:17.094Z,18.30
2018-04-19T06:42:17.129Z,16.40
2018-04-19T06:43:17.155Z,15.50
2018-04-19T06:44:17.179Z,14.90
2018-04-19T06:45:17.210Z,16.60
2018-04-19T06:46:17.243Z,18.50
2018-04-19T06:47:17.264Z,16.90
2018-04-19T06:48:17.299Z,19.90
2018-04-19T06:49:17.353Z,16.20
2018-04-19T06:50:17.361Z,16.90
2018-04-19T06:51:17.383Z,19.00
2018-04-19T06:52:17.412Z,14.50
2018-04-19T06:53:17.440Z,15.90
2018-04-19T06:54:17.468Z,19.60
2018-04-19T06:55:17.487Z,17.60
2018-04-19T06:56:17.532Z,19.30
2018-04-19T06:57:17.555Z,18.40
2018-04-19T06:58:17.583Z,18.20
2018-04-19T06:59:17.604Z,20.70
2018-04-19T07:00:17.634Z,22.10
2018-04-19T07:01:17.660Z,18.50
2018-04-19T07:02:17.694Z,16.10
2018-04-19T07:03:17.728Z,18.30
2018-04-19T07:04:17.754Z,15.60
2018-04-19T07:05:17.781Z,16.90
2018-04-19T07:06:17.827Z,15.60
2018-04-19T07:07:17.837Z,21.00
2018-04-19T07:08:17.870Z,18.80
2018-04-19T07:09:17.893Z,14.80
2018-04-19T07:10:17.926Z,16.20
2018-04-19T07:11:17.967Z,19.20
2018-04-19T07:12:17.987Z,16.60
2018-04-19T07:13:18.011Z,19.40
2018-04-19T07:14:18.042Z,15.90
2018-04-19T07:15:18.068Z,14.50
2018-04-19T07:16:18.098Z,19.10
2018-04-19T07:17:18.157Z,15.10
2018-04-19T07:18:18.155Z,15.80
2018-04-19T07:19:18.184Z,18.20
2018-04-19T07:20:18.210Z,20.40
2018-04-19T07:21:18.240Z,16.50
2018-04-19T07:22:18.279Z,19.30
2018-04-19T07:23:18.303Z,15.90
2018-04-19T07:24:18.339Z,17.10
2018-04-19T07:25:18.360Z,17.30
2018-04-19T07:26:18.393Z,18.40
2018-04-19T07:27:18.431Z,17.80
2018-04-19T07:28:18.454Z,18.80
2018-04-19T07:29:18.475Z,15.50
2018-04-19T07:30:18.509Z,17.10
2018-04-19T07:31:18.540Z,17.00
2018-04-19T07:32:18.602Z,14.80
2018-04-19T07:33:18.602Z,15.60
2018-04-19T07:34:18.629Z,17.70
2018-04-19T07:35:18.668Z,17.20
2018-04-19T07:36:18.681Z,18.00
2018-04-19T07:37:18.720Z,18.50
2018-04-19T07:38:18.745Z,17.60
2018-04-19T07:39:18.776Z,15.50
2018-04-19T07:40:18.803Z,16.00
2018-04-19T07:41:18.844Z,20.30
2018-04-19T07:42:18.860Z,16.80
2018-04-19T07:43:18.919Z,16.40
2018-04-19T07:44:18.920Z,19.20
2018-04-19T07:45:18.952Z,18.20
2018-04-19T07:46:18.975Z,20.70
2018-04-19T07:47:19.008Z,19.70
2018-04-19T07:48:19.040Z,18.30
2018-04-19T07:49:19.072Z,15.60
2018-04-19T07:50:19.127Z,22.90
2018-04-19T07:51:19.130Z,16.80
2018-04-19T07:52:19.168Z,16.80
2018-04-19T07:53:19.191Z,19.40
2018-04-19T07:54:19.225Z,16.30
2018-04-19T07:55:19.247Z,20.30
2018-04-19T07:56:19.274Z,18.70
2018-04-19T07:57:19.304Z,17.50
2018-04-19T07:58:19.343Z,15.90
2018-04-19T07:59:19.366Z,20.10
2018-04-19T08:00:19.401Z,18.30
2018-04-19T08:01:19.433Z,17.90
2018-04-19T08:02:19.466Z,20.90
2018-04-19T08:03:19.491Z,18.80
2018-04-19T08:04:19.522Z,16.50
2018-04-19T08:05:19.621Z,16.20
2018-04-19T08:06:19.579Z,22.00
2018-04-19T08:07:19.609Z,20.40
2018-04-19T08:08:19.634Z,18.80
2018-04-19T08:09:19.664Z,19.90
2018-04-19T08:10:19.698Z,19.40
2018-04-19T08:11:19.760Z,16.20
2018-04-19T08:12:19.756Z,19.90
2018-04-19T08:13:19.792Z,18.90
2018-04-19T08:14:19.816Z,20.70
2018-04-19T08:15:19.849Z,19.60
2018-04-19T08:16:19.892Z,19.80
2018-04-19T08:17:19.902Z,18.90
2018-04-19T08:18:19.935Z,19.30
2018-04-19T08:19:19.968Z,17.10
2018-04-19T08:20:19.992Z,18.70
2018-04-19T08:21:20.026Z,18.40
2018-04-19T08:22:20.056Z,18.80
2018-04-19T08:23:20.078Z,19.00
2018-04-19T08:24:20.111Z,17.30
2018-04-19T08:25:20.137Z,19.40
2018-04-19T08:26:20.187Z,18.20
2018-04-19T08:27:20.193Z,18.80
2018-04-19T08:28:20.220Z,20.10
2018-04-19T08:29:20.251Z,19.80
2018-04-19T08:30:20.296Z,19.60
2018-04-19T08:31:20.315Z,17.10
2018-04-19T08:32:20.329Z,19.40
2018-04-19T08:33:20.357Z,20.00
2018-04-19T08:34:20.398Z,21.90
2018-04-19T08:35:20.413Z,22.40
2018-04-19T08:36:20.438Z,25.20
2018-04-19T08:37:20.472Z,19.10
2018-04-19T08:38:20.496Z,20.50
2018-04-19T08:39:20.518Z,16.90
2018-04-19T08:40:20.545Z,19.80
2018-04-19T08:41:20.600Z,20.30
2018-04-19T08:42:20.626Z,17.90
2018-04-19T08:43:20.634Z,17.90
2018-04-19T08:44:20.658Z,22.90
2018-04-19T08:45:20.684Z,16.10
2018-04-19T08:46:20.701Z,20.90
2018-04-19T08:47:20.727Z,18.60
2018-04-19T08:48:20.756Z,18.70
2018-04-19T08:49:20.783Z,18.80
2018-04-19T08:50:20.803Z,19.10
2018-04-19T08:51:20.829Z,20.00
2018-04-19T08:52:20.870Z,17.00
2018-04-19T08:53:20.883Z,18.10
2018-04-19T08:54:20.914Z,21.10
2018-04-19T08:55:20.927Z,19.70
2018-04-19T08:56:20.957Z,17.90
2018-04-19T08:57:20.991Z,21.20
2018-04-19T08:58:21.007Z,18.60
2018-04-19T08:59:21.041Z,17.00
2018-04-19T09:00:21.054Z,18.00
2018-04-19T09:01:21.088Z,17.20
2018-04-19T09:02:21.104Z,22.40
2018-04-19T09:03:21.137Z,17.80
2018-04-19T09:04:21.173Z,18.90
2018-04-19T09:05:21.180Z,22.10
2018-04-19T09:06:21.214Z,19.40
2018-04-19T09:07:21.232Z,20.10
2018-04-19T09:08:21.261Z,17.20
2018-04-19T09:09:21.297Z,18.10
2018-04-19T09:10:21.304Z,18.50
2018-04-19T09:11:21.323Z,15.70
2018-04-19T09:12:21.353Z,19.40
2018-04-19T09:13:21.374Z,19.90
2018-04-19T09:14:21.408Z,18.50
2018-04-19T09:15:21.427Z,20.20
2018-04-19T09:16:21.449Z,16.00
2018-04-19T09:17:21.477Z,18.80
2018-04-19T09:18:21.494Z,18.00
2018-04-19T09:19:21.525Z,15.40
2018-04-19T09:20:21.550Z,14.40
2018-04-19T09:21:21.583Z,16.70
2018-04-19T09:22:21.608Z,17.70
2018-04-19T09:23:21.626Z,16.40
2018-04-19T09:24:21.672Z,17.70
2018-04-19T09:25:21.672Z,15.30
2018-04-19T09:26:21.701Z,14.90
2018-04-19T09:27:21.725Z,19.50
2018-04-19T09:28:21.774Z,14.20
2018-04-19T09:29:21.769Z,19.30
2018-04-19T09:30:21.820Z,17.40
2018-04-19T09:31:21.816Z,31.10
2018-04-19T09:32:21.844Z,16.50
2018-04-19T09:33:21.866Z,17.70
2018-04-19T09:34:21.893Z,18.60
2018-04-19T09:35:21.924Z,14.00
2018-04-19T09:36:21.942Z,20.20
2018-04-19T09:37:21.975Z,15.20
2018-04-19T09:38:21.989Z,15.40
2018-04-19T09:39:22.034Z,13.50
2018-04-19T09:40:22.042Z,15.30
2018-04-19T09:41:22.065Z,17.00
2018-04-19T09:42:22.091Z,15.20
2018-04-19T09:43:22.113Z,16.40
2018-04-19T09:44:22.167Z,15.90
2018-04-19T09:45:22.163Z,17.10
2018-04-19T09:46:22.186Z,15.10
2018-04-19T09:47:22.209Z,14.90
2018-04-19T09:48:22.236Z,14.00
2018-04-19T09:49:22.265Z,23.50
2018-04-19T09:50:22.309Z,17.50
2018-04-19T09:51:22.327Z,18.40
2018-04-19T09:52:22.343Z,13.00
2018-04-19T09:53:22.390Z,13.70
2018-04-19T09:54:22.387Z,14.40
2018-04-19T09:55:22.415Z,15.20
2018-04-19T09:56:22.447Z,13.40
2018-04-19T09:57:22.459Z,12.20
2018-04-19T09:58:22.487Z,14.70
2018-04-19T09:59:22.513Z,11.90
2018-04-19T10:00:22.535Z,11.10
2018-04-19T10:01:22.561Z,12.20
2018-04-19T10:02:22.639Z,12.50
2018-04-19T10:03:22.625Z,10.70
2018-04-19T10:04:22.636Z,11.10
2018-04-19T10:05:22.673Z,14.30
2018-04-19T10:06:22.690Z,15.20
2018-04-19T10:07:22.716Z,18.10
2018-04-19T10:08:22.739Z,12.60
2018-04-19T10:09:22.758Z,12.60
2018-04-19T10:10:22.834Z,15.30
2018-04-19T10:11:22.806Z,11.80
2018-04-19T10:12:22.836Z,14.40
2018-04-19T10:13:22.857Z,16.20
2018-04-19T10:14:22.885Z,15.00
2018-04-19T10:15:22.922Z,13.70
2018-04-19T10:16:22.957Z,13.30
2018-04-19T10:17:22.959Z,15.20
2018-04-19T10:18:22.988Z,12.10
2018-04-19T10:19:23.012Z,12.10
2018-04-19T10:20:23.031Z,11.50
2018-04-19T10:21:23.094Z,11.10
2018-04-19T10:22:23.090Z,11.30
2018-04-19T10:23:23.117Z,12.80
2018-04-19T10:24:23.145Z,11.40
2018-04-19T10:25:23.157Z,9.80
2018-04-19T10:26:23.183Z,14.90
2018-04-19T10:27:23.254Z,12.70
2018-04-19T10:28:23.236Z,11.30
2018-04-19T10:29:23.254Z,12.90
2018-04-19T10:30:23.280Z,17.20
2018-04-19T10:31:23.310Z,12.20
2018-04-19T10:32:23.334Z,12.60
2018-04-19T10:33:23.353Z,13.40
2018-04-19T10:34:23.396Z,12.20
2018-04-19T10:35:23.403Z,12.50
2018-04-19T10:36:23.437Z,10.50
2018-04-19T10:37:23.452Z,10.90
2018-04-19T10:38:23.479Z,12.00
2018-04-19T10:39:23.505Z,11.70
2018-04-19T10:40:23.533Z,11.10
2018-04-19T10:41:23.558Z,8.60
2018-04-19T10:42:23.573Z,7.10
2018-04-19T10:43:23.611Z,8.40
2018-04-19T10:44:23.635Z,6.30
2018-04-19T10:45:23.652Z,7.80
2018-04-19T10:46:23.677Z,6.20
2018-04-19T10:47:23.714Z,6.70
2018-04-19T10:48:23.741Z,7.50
2018-04-19T10:49:23.802Z,9.50
2018-04-19T10:50:23.775Z,7.50
2018-04-19T10:51:23.808Z,8.00
2018-04-19T10:52:23.831Z,8.90
2018-04-19T10:53:23.856Z,12.60
2018-04-19T10:54:23.881Z,7.50
2018-04-19T10:55:23.900Z,7.60
2018-04-19T10:56:23.938Z,8.70
2018-04-19T10:57:23.970Z,9.00
2018-04-19T10:58:23.984Z,9.90
2018-04-19T10:59:24.005Z,8.80
2018-04-19T11:00:24.035Z,7.70
2018-04-19T11:01:24.057Z,6.80
2018-04-19T11:02:24.080Z,8.20
2018-04-19T11:03:24.114Z,5.90
2018-04-19T11:04:24.132Z,6.70
2018-04-19T11:05:24.166Z,10.60
2018-04-19T11:06:24.179Z,5.70
2018-04-19T11:07:24.205Z,10.00
2018-04-19T11:08:24.233Z,10.80
2018-04-19T11:09:24.257Z,5.70
2018-04-19T11:10:24.276Z,7.90
2018-04-19T11:11:24.301Z,6.80
2018-04-19T11:12:24.328Z,9.50
2018-04-19T11:13:24.365Z,9.60
2018-04-19T11:14:24.379Z,7.90
2018-04-19T11:15:24.415Z,10.00
2018-04-19T11:16:24.429Z,12.90
2018-04-19T11:17:24.458Z,6.60
2018-04-19T11:18:24.487Z,8.10
2018-04-19T11:19:24.507Z,8.60
2018-04-19T11:20:24.526Z,13.10
2018-04-19T11:21:24.566Z,8.80
2018-04-19T11:22:24.577Z,7.90
2018-04-19T11:23:24.611Z,10.20
2018-04-19T11:24:24.631Z,10.80
2018-04-19T11:25:24.684Z,9.00
2018-04-19T11:26:24.685Z,7.10
2018-04-19T11:27:24.704Z,9.10
2018-04-19T11:28:24.737Z,7.90
2018-04-19T11:29:24.765Z,6.40
2018-04-19T11:30:24.785Z,6.50
2018-04-19T11:31:24.808Z,11.10
2018-04-19T11:32:24.834Z,6.40
2018-04-19T11:33:24.864Z,8.50
2018-04-19T11:34:24.888Z,8.00
2018-04-19T11:35:24.911Z,10.50
2018-04-19T11:36:24.936Z,9.60
2018-04-19T11:37:24.955Z,6.40
2018-04-19T11:38:24.986Z,9.60
2018-04-19T11:39:25.013Z,9.80
2018-04-19T11:40:25.036Z,6.00
2018-04-19T11:41:25.064Z,7.10
2018-04-19T11:42:25.091Z,6.10
2018-04-19T11:43:25.113Z,9.10
2018-04-19T11:44:25.180Z,7.60
2018-04-19T11:45:25.160Z,7.10
2018-04-19T11:46:25.187Z,8.30
2018-04-19T11:47:25.222Z,7.60
2018-04-19T11:48:25.251Z,10.80
2018-04-19T11:49:25.266Z,10.90
2018-04-19T11:50:25.298Z,8.00
2018-04-19T11:51:25.317Z,9.90
2018-04-19T11:52:25.341Z,7.60
2018-04-19T11:53:25.367Z,9.00
2018-04-19T11:54:25.392Z,8.50
2018-04-19T11:55:25.418Z,8.70
2018-04-19T11:56:25.441Z,10.80
2018-04-19T11:57:25.470Z,5.90
2018-04-19T11:58:25.497Z,6.70
2018-04-19T11:59:25.534Z,7.10
2018-04-19T12:00:25.548Z,8.50
2018-04-19T12:01:25.572Z,6.80
2018-04-19T12:02:25.600Z,11.70
2018-04-19T12:03:25.621Z,8.50
2018-04-19T12:04:25.646Z,7.60
2018-04-19T12:05:25.687Z,8.60
2018-04-19T12:06:25.715Z,7.60
2018-04-19T12:07:25.728Z,5.70
2018-04-19T12:08:25.752Z,6.80
2018-04-19T12:09:25.772Z,9.90
2018-04-19T12:10:25.798Z,6.50
2018-04-19T12:11:25.831Z,10.70
2018-04-19T12:12:25.853Z,8.90
2018-04-19T12:13:25.878Z,9.00
2018-04-19T12:14:25.910Z,4.90
2018-04-19T12:15:25.927Z,7.90
2018-04-19T12:16:25.956Z,5.30
2018-04-19T12:17:25.983Z,6.90
2018-04-19T12:18:26.023Z,6.30
2018-04-19T12:19:26.048Z,9.10
2018-04-19T12:20:26.068Z,9.80
2018-04-19T12:21:26.085Z,7.50
2018-04-19T12:22:26.107Z,9.30
2018-04-19T12:23:26.143Z,7.40
2018-04-19T12:24:26.151Z,5.30
2018-04-19T12:25:26.182Z,7.40
2018-04-19T12:26:26.207Z,8.40
2018-04-19T12:27:26.231Z,8.80
2018-04-19T12:28:26.254Z,9.60
2018-04-19T12:29:26.305Z,9.60
2018-04-19T12:30:26.314Z,7.20
2018-04-19T12:31:26.348Z,9.90
2018-04-19T12:32:26.356Z,5.00
2018-04-19T12:33:26.386Z,9.00
2018-04-19T12:34:26.409Z,8.30
2018-04-19T12:35:26.438Z,7.70
2018-04-19T12:36:26.457Z,11.60
2018-04-19T12:37:26.512Z,6.70
2018-04-19T12:38:26.511Z,6.50
2018-04-19T12:39:26.538Z,7.90
2018-04-19T12:40:26.562Z,8.40
2018-04-19T12:41:26.596Z,7.90
2018-04-19T12:42:26.622Z,5.60
2018-04-19T12:43:26.645Z,7.80
2018-04-19T12:44:26.662Z,8.80
2018-04-19T12:45:26.694Z,7.20
2018-04-19T12:46:26.712Z,4.60
2018-04-19T12:47:26.746Z,6.70
2018-04-19T12:48:26.760Z,6.90
2018-04-19T12:49:26.807Z,9.40
2018-04-19T12:50:26.823Z,8.30
2018-04-19T12:51:26.846Z,6.00
2018-04-19T12:52:26.867Z,7.90
2018-04-19T12:53:26.895Z,7.20
2018-04-19T12:54:26.918Z,6.90
2018-04-19T12:55:26.943Z,6.00
2018-04-19T12:56:27.005Z,9.00
2018-04-19T12:57:26.994Z,7.90
2018-04-19T12:58:27.038Z,12.90
2018-04-19T12:59:27.048Z,8.30
2018-04-19T13:00:27.068Z,7.10
2018-04-19T13:01:27.097Z,6.40
2018-04-19T13:02:27.133Z,7.70
2018-04-19T13:03:27.160Z,8.70
2018-04-19T13:04:27.178Z,6.00
2018-04-19T13:05:27.200Z,7.00
2018-04-19T13:06:27.241Z,10.30
2018-04-19T13:07:27.257Z,7.50
2018-04-19T13:08:27.289Z,6.10
2018-04-19T13:09:27.319Z,7.90
2018-04-19T13:10:27.356Z,6.20
2018-04-19T13:11:27.350Z,6.60
2018-04-19T13:12:27.380Z,5.60
2018-04-19T13:13:27.410Z,7.40